createdAt,value
2022-08-09T00:00:11.402Z,14.62
2022-08-09T00:02:49.112Z,14.61
2022-08-09T00:06:16.231Z,14.44
2022-08-09T00:08:10.179Z,14.52
2022-08-09T00:10:39.289Z,14.54
2022-08-09T00:13:16.821Z,14.52
2022-08-09T00:15:59.065Z,14.49
2022-08-09T00:18:28.968Z,14.38
2022-08-09T00:20:55.566Z,14.23
2022-08-09T00:23:55.684Z,14.21
2022-08-09T00:26:10.890Z,14.26
2022-08-09T00:28:39.534Z,14.28
2022-08-09T00:31:09.210Z,14.23
2022-08-09T00:33:54.947Z,14.25
2022-08-09T00:36:29.561Z,14.24
2022-08-09T00:38:57.772Z,14.21
2022-08-09T00:44:10.467Z,14.14
2022-08-09T00:44:26.029Z,14.02
2022-08-09T00:46:56.854Z,14.00
2022-08-09T00:49:28.543Z,13.97
2022-08-09T00:51:57.971Z,13.93
2022-08-09T00:54:31.278Z,13.94
2022-08-09T00:57:01.826Z,13.99
2022-08-09T00:59:40.650Z,13.95
2022-08-09T01:02:09.403Z,13.99
2022-08-09T01:04:52.498Z,14.01
2022-08-09T01:07:38.030Z,13.88
2022-08-09T01:10:29.652Z,13.77
2022-08-09T01:13:16.897Z,13.84
2022-08-09T01:15:52.126Z,13.71
2022-08-09T01:18:30.339Z,13.74
2022-08-09T01:21:09.886Z,13.58
2022-08-09T01:24:00.712Z,13.61
2022-08-09T01:26:54.943Z,13.64
2022-08-09T01:29:29.479Z,13.59
2022-08-09T01:32:37.731Z,13.61
2022-08-09T01:35:29.007Z,13.52
2022-08-09T01:38:10.614Z,13.49
2022-08-09T01:40:52.868Z,13.39
2022-08-09T01:43:50.453Z,13.42
2022-08-09T01:46:37.672Z,13.40
2022-08-09T01:49:14.779Z,13.37
2022-08-09T01:51:53.709Z,13.33
2022-08-09T01:54:23.042Z,13.33
2022-08-09T01:56:52.704Z,13.50
2022-08-09T01:59:22.990Z,13.36
2022-08-09T02:01:59.719Z,13.38
2022-08-09T02:04:30.027Z,13.21
2022-08-09T02:07:18.557Z,13.16
2022-08-09T02:10:10.623Z,13.11
2022-08-09T02:12:39.315Z,13.27
2022-08-09T02:15:08.227Z,13.13
2022-08-09T02:18:01.653Z,13.12
2022-08-09T02:20:33.928Z,13.02
2022-08-09T02:23:17.069Z,12.95
2022-08-09T02:25:52.583Z,13.00
2022-08-09T02:28:28.365Z,12.87
2022-08-09T02:31:01.511Z,12.98
2022-08-09T02:33:58.117Z,13.05
2022-08-09T02:36:31.994Z,13.02
2022-08-09T02:39:02.721Z,13.11
2022-08-09T02:41:43.550Z,13.10
2022-08-09T02:44:29.266Z,13.08
2022-08-09T02:46:58.782Z,13.08
2022-08-09T02:49:40.990Z,13.06
2022-08-09T02:52:16.199Z,13.00
2022-08-09T02:54:54.052Z,12.98
2022-08-09T02:57:23.525Z,12.87
2022-08-09T03:00:21.441Z,12.86
2022-08-09T03:02:58.533Z,12.83
2022-08-09T03:05:28.378Z,12.83
2022-08-09T03:07:56.652Z,12.95
2022-08-09T03:10:26.470Z,12.99
2022-08-09T03:12:54.527Z,12.97
2022-08-09T03:15:23.202Z,12.94
2022-08-09T03:17:58.030Z,12.88
2022-08-09T03:20:29.646Z,12.80
2022-08-09T03:23:14.522Z,12.74
2022-08-09T03:25:58.062Z,12.82
2022-08-09T03:28:27.088Z,12.86
2022-08-09T03:30:55.621Z,12.84
2022-08-09T03:33:24.371Z,12.64
2022-08-09T03:36:13.034Z,12.43
2022-08-09T03:38:42.737Z,12.48
2022-08-09T03:41:15.130Z,12.40
2022-08-09T03:43:42.632Z,12.44
2022-08-09T03:46:27.220Z,12.36
2022-08-09T03:49:04.169Z,12.35
2022-08-09T03:51:54.082Z,12.37
2022-08-09T03:54:29.456Z,12.39
2022-08-09T03:57:00.843Z,12.48
2022-08-09T03:59:53.476Z,12.39
2022-08-09T04:02:14.444Z,12.46
2022-08-09T04:04:46.345Z,12.29
2022-08-09T04:07:14.562Z,12.28
2022-08-09T04:09:50.012Z,12.23
2022-08-09T04:12:41.380Z,12.13
2022-08-09T04:15:29.507Z,12.14
2022-08-09T04:17:59.091Z,12.15
2022-08-09T04:20:34.536Z,12.18
2022-08-09T04:23:02.037Z,12.30
2022-08-09T04:25:29.507Z,12.24
2022-08-09T04:28:02.450Z,12.25
2022-08-09T04:30:31.656Z,12.40
2022-08-09T04:33:01.158Z,12.36
2022-08-09T04:35:29.281Z,12.29
2022-08-09T04:37:59.593Z,12.42
2022-08-09T04:40:48.362Z,12.57
2022-08-09T04:43:22.649Z,12.57
2022-08-09T04:45:54.454Z,12.44
2022-08-09T04:48:23.703Z,12.46
2022-08-09T04:50:51.939Z,12.49
2022-08-09T04:53:18.420Z,12.56
2022-08-09T04:55:58.467Z,12.53
2022-08-09T04:58:31.817Z,12.64
2022-08-09T05:01:01.453Z,12.68
2022-08-09T05:03:40.277Z,12.89
2022-08-09T05:06:11.875Z,12.98
2022-08-09T05:08:52.226Z,13.06
2022-08-09T05:11:32.446Z,13.30
2022-08-09T05:14:05.911Z,13.29
2022-08-09T05:16:58.224Z,13.23
2022-08-09T05:19:26.012Z,13.35
2022-08-09T05:21:55.505Z,13.32
2022-08-09T05:24:24.170Z,13.55
2022-08-09T05:26:55.960Z,13.75
2022-08-09T05:29:31.395Z,13.81
2022-08-09T05:32:02.015Z,14.10
2022-08-09T05:34:31.627Z,14.06
2022-08-09T05:37:06.154Z,14.24
2022-08-09T05:39:43.188Z,14.33
2022-08-09T05:42:17.840Z,14.38
2022-08-09T05:44:58.468Z,14.41
2022-08-09T05:47:30.311Z,14.62
2022-08-09T05:50:30.150Z,14.64
2022-08-09T05:52:53.628Z,14.97
2022-08-09T05:55:21.689Z,15.06
2022-08-09T05:57:56.775Z,15.27
2022-08-09T06:00:32.875Z,15.36
2022-08-09T06:03:02.294Z,15.75
2022-08-09T06:05:54.814Z,16.38
2022-08-09T06:08:19.459Z,17.13
2022-08-09T06:10:51.569Z,17.44
2022-08-09T06:13:20.333Z,18.14
2022-08-09T06:15:52.187Z,18.41
2022-08-09T06:18:24.065Z,18.55
2022-08-09T06:20:54.831Z,18.92
2022-08-09T06:23:58.267Z,19.55
2022-08-09T06:26:21.340Z,19.47
2022-08-09T06:28:59.394Z,19.98
2022-08-09T06:31:31.501Z,20.51
2022-08-09T06:34:07.424Z,20.33
2022-08-09T06:36:33.974Z,21.04
2022-08-09T06:39:02.659Z,21.48
2022-08-09T06:42:07.884Z,22.43
2022-08-09T06:44:23.744Z,22.52
2022-08-09T06:46:55.282Z,22.54
2022-08-09T06:49:44.953Z,22.65
2022-08-09T06:52:09.769Z,22.26
2022-08-09T06:54:39.251Z,22.16
2022-08-09T06:57:08.432Z,23.22
2022-08-09T07:00:51.343Z,23.42
2022-08-09T07:02:22.330Z,22.09
2022-08-09T07:04:57.501Z,23.55
2022-08-09T07:07:58.435Z,23.49
2022-08-09T07:10:29.656Z,23.40
2022-08-09T07:13:00.092Z,23.88
2022-08-09T07:16:34.792Z,23.83
2022-08-09T07:18:31.436Z,22.75
2022-08-09T07:20:58.439Z,24.09
2022-08-09T07:23:24.884Z,24.33
2022-08-09T07:26:02.601Z,24.76
2022-08-09T07:28:30.821Z,24.40
2022-08-09T07:31:02.260Z,25.31
2022-08-09T07:33:52.683Z,25.07
2022-08-09T07:36:17.818Z,24.19
2022-08-09T07:38:56.810Z,25.29
2022-08-09T07:41:27.240Z,25.13
2022-08-09T07:43:59.873Z,25.82
2022-08-09T07:46:28.088Z,25.29
2022-08-09T07:48:59.361Z,25.99
2022-08-09T07:52:05.120Z,26.19
2022-08-09T07:54:14.602Z,26.01
2022-08-09T07:56:45.193Z,26.40
2022-08-09T07:59:34.772Z,26.49
2022-08-09T08:02:08.912Z,27.14
2022-08-09T08:04:36.512Z,26.22
2022-08-09T08:07:15.172Z,26.46
2022-08-09T08:10:07.502Z,27.68
2022-08-09T08:12:35.380Z,27.41
2022-08-09T08:15:05.017Z,26.98
2022-08-09T08:17:52.590Z,27.76
2022-08-09T08:20:19.620Z,26.74
2022-08-09T08:23:01.279Z,27.04
2022-08-09T08:25:44.668Z,26.98
2022-08-09T08:28:14.967Z,27.45
2022-08-09T08:30:45.661Z,27.57
2022-08-09T08:33:23.852Z,27.48
2022-08-09T08:35:58.526Z,27.12
2022-08-09T08:38:28.508Z,26.98
2022-08-09T08:40:56.688Z,27.32
2022-08-09T08:43:24.359Z,28.58
2022-08-09T08:46:09.934Z,28.79
2022-08-09T08:48:52.054Z,27.16
2022-08-09T08:51:22.579Z,28.90
2022-08-09T08:54:03.926Z,30.28
2022-08-09T08:56:37.588Z,28.10
2022-08-09T08:59:20.036Z,28.67
2022-08-09T09:01:52.942Z,29.57
2022-08-09T09:04:41.327Z,29.37
2022-08-09T09:07:15.825Z,30.91
2022-08-09T09:10:02.302Z,29.12
2022-08-09T09:12:34.222Z,30.82
2022-08-09T09:15:05.773Z,31.69
2022-08-09T09:17:48.532Z,32.25
2022-08-09T09:20:18.997Z,31.05
2022-08-09T09:22:56.658Z,30.93
2022-08-09T09:26:04.849Z,30.68
2022-08-09T09:28:39.092Z,32.65
2022-08-09T09:32:06.615Z,31.85
2022-08-09T09:34:14.447Z,30.23
2022-08-09T09:36:50.977Z,31.35
2022-08-09T09:39:54.851Z,32.03
2022-08-09T09:42:26.649Z,32.74
2022-08-09T09:44:59.026Z,31.30
2022-08-09T09:47:26.468Z,30.60
2022-08-09T09:50:14.458Z,32.29
2022-08-09T09:52:56.885Z,31.24
2022-08-09T09:55:32.083Z,31.56
2022-08-09T09:58:19.296Z,30.97
2022-08-09T10:00:54.059Z,33.28
2022-08-09T10:03:40.043Z,34.45
2022-08-09T10:06:07.071Z,33.95
2022-08-09T10:08:42.682Z,32.31
2022-08-09T10:11:59.892Z,32.27
2022-08-09T10:14:32.992Z,33.26
2022-08-09T10:17:40.683Z,32.69
2022-08-09T10:19:57.205Z,31.37
2022-08-09T10:22:35.356Z,33.27
2022-08-09T10:25:11.275Z,34.73
2022-08-09T10:27:45.344Z,34.71
2022-08-09T10:34:04.618Z,31.24
2022-08-09T10:36:11.698Z,34.09
2022-08-09T10:38:56.605Z,33.95
2022-08-09T10:41:26.209Z,31.69
2022-08-09T10:44:01.565Z,33.49
2022-08-09T10:46:57.313Z,33.58
2022-08-09T10:49:50.150Z,31.75
2022-08-09T10:52:42.901Z,34.26
2022-08-09T10:55:21.314Z,34.92
2022-08-09T10:57:51.872Z,35.13
2022-08-09T11:00:50.892Z,34.49
2022-08-09T11:03:47.137Z,33.55
2022-08-09T11:06:16.862Z,33.09
2022-08-09T11:08:47.347Z,35.14
2022-08-09T11:11:16.158Z,35.64
2022-08-09T11:13:54.250Z,35.56
2022-08-09T11:16:35.518Z,35.94
2022-08-09T11:19:07.895Z,33.04
2022-08-09T11:21:56.962Z,34.44
2022-08-09T11:24:57.071Z,34.29
2022-08-09T11:28:04.835Z,32.98
2022-08-09T11:30:37.622Z,34.09
2022-08-09T11:33:13.847Z,35.00
2022-08-09T11:35:49.159Z,34.64
2022-08-09T11:38:19.815Z,35.60
2022-08-09T11:40:54.689Z,35.12
2022-08-09T11:43:32.404Z,32.99
2022-08-09T11:46:01.471Z,32.26
2022-08-09T11:48:33.557Z,35.06
2022-08-09T11:52:49.440Z,34.51
2022-08-09T11:54:13.438Z,36.53
2022-08-09T11:56:42.619Z,35.21
2022-08-09T11:59:33.013Z,35.84
2022-08-09T12:02:34.335Z,33.14
2022-08-09T12:04:47.193Z,33.03
2022-08-09T12:07:14.851Z,34.01
2022-08-09T12:09:50.502Z,36.94
2022-08-09T12:12:20.412Z,33.90
2022-08-09T12:15:07.622Z,34.56
2022-08-09T12:17:42.110Z,32.87
2022-08-09T12:20:21.387Z,34.57
2022-08-09T12:23:00.470Z,34.91
2022-08-09T12:25:31.896Z,38.27
2022-08-09T12:29:13.892Z,38.39
2022-08-09T12:31:58.070Z,36.38
2022-08-09T12:34:11.108Z,35.98
2022-08-09T12:36:58.830Z,37.25
2022-08-09T12:39:37.749Z,37.04
2022-08-09T12:42:10.313Z,35.16
2022-08-09T12:44:52.065Z,35.98
2022-08-09T12:47:23.027Z,33.91
2022-08-09T12:50:08.908Z,33.73
2022-08-09T12:52:52.561Z,32.05
2022-08-09T12:56:15.617Z,35.19
2022-08-09T12:58:27.463Z,35.11
2022-08-09T13:00:55.404Z,31.96
2022-08-09T13:03:56.743Z,32.03
2022-08-09T13:06:38.891Z,36.10
2022-08-09T13:09:07.644Z,37.56
2022-08-09T13:11:39.646Z,35.23
2022-08-09T13:14:42.916Z,33.48
2022-08-09T13:17:08.527Z,31.99
2022-08-09T13:20:09.305Z,33.55
2022-08-09T13:22:36.525Z,33.26
2022-08-09T13:25:07.455Z,33.66
2022-08-09T13:27:48.415Z,33.16
2022-08-09T13:30:51.016Z,32.82
2022-08-09T13:33:17.125Z,32.86
2022-08-09T13:36:37.954Z,32.90
2022-08-09T13:38:57.869Z,32.53
2022-08-09T13:41:55.624Z,31.25
2022-08-09T13:44:13.675Z,30.23
2022-08-09T13:47:30.807Z,30.84
2022-08-09T13:49:37.618Z,30.84
2022-08-09T13:52:09.219Z,29.95
2022-08-09T13:54:41.789Z,30.69
2022-08-09T13:57:36.353Z,29.64
2022-08-09T14:00:04.843Z,28.71
2022-08-09T14:02:32.622Z,29.81
2022-08-09T14:05:03.107Z,29.92
2022-08-09T14:07:40.981Z,29.72
2022-08-09T14:10:17.513Z,29.61
2022-08-09T14:12:56.847Z,29.26
2022-08-09T14:16:10.466Z,29.12
2022-08-09T14:18:18.779Z,29.16
2022-08-09T14:20:45.907Z,29.50
2022-08-09T14:23:20.310Z,30.12
2022-08-09T14:26:02.372Z,29.18
2022-08-09T14:28:33.216Z,29.86
2022-08-09T14:30:59.672Z,30.04
2022-08-09T14:33:26.120Z,29.78
2022-08-09T14:35:53.483Z,29.79
2022-08-09T14:38:20.115Z,29.18
2022-08-09T14:41:04.304Z,29.54
2022-08-09T14:43:47.735Z,29.90
2022-08-09T14:46:54.753Z,29.57
2022-08-09T14:49:10.471Z,29.03
2022-08-09T14:51:42.428Z,28.66
2022-08-09T14:54:09.541Z,28.81
2022-08-09T14:56:36.449Z,29.07
2022-08-09T14:59:23.900Z,28.70
2022-08-09T15:01:50.524Z,28.62
2022-08-09T15:04:17.803Z,28.60
2022-08-09T15:06:49.706Z,28.54
2022-08-09T15:09:16.807Z,28.89
2022-08-09T15:12:04.469Z,28.98
2022-08-09T15:14:33.691Z,29.01
2022-08-09T15:17:04.990Z,28.79
2022-08-09T15:19:36.032Z,29.12
2022-08-09T15:22:03.857Z,28.36
2022-08-09T15:24:32.550Z,29.05
2022-08-09T15:26:59.788Z,28.68
2022-08-09T15:30:48.860Z,28.65
2022-08-09T15:32:29.134Z,28.66
2022-08-09T15:34:59.926Z,29.05
2022-08-09T15:37:57.134Z,29.18
2022-08-09T15:40:25.334Z,28.93
2022-08-09T15:42:59.196Z,28.73
2022-08-09T15:45:29.372Z,28.34
2022-08-09T15:48:05.348Z,28.43
2022-08-09T15:50:39.289Z,28.71
2022-08-09T15:54:02.159Z,28.32
2022-08-09T15:56:24.069Z,28.08
2022-08-09T15:58:44.817Z,28.17
2022-08-09T16:01:13.582Z,27.89
2022-08-09T16:03:41.630Z,27.63
2022-08-09T16:06:27.289Z,27.47
2022-08-09T16:08:56.135Z,27.69
2022-08-09T16:11:23.422Z,28.02
2022-08-09T16:14:04.708Z,28.06
2022-08-09T16:16:37.147Z,28.19
2022-08-09T16:19:06.132Z,28.17
2022-08-09T16:21:35.183Z,28.06
2022-08-09T16:24:03.051Z,28.07
2022-08-09T16:26:33.601Z,28.00
2022-08-09T16:29:01.250Z,28.04
2022-08-09T16:32:10.634Z,27.53
2022-08-09T16:34:24.703Z,27.57
2022-08-09T16:36:51.262Z,27.55
2022-08-09T16:39:17.907Z,27.43
2022-08-09T16:42:03.966Z,27.27
2022-08-09T16:44:31.835Z,27.26
2022-08-09T16:47:03.976Z,27.20
2022-08-09T16:50:29.716Z,27.17
2022-08-09T16:52:32.159Z,27.20
2022-08-09T16:54:58.809Z,27.15
2022-08-09T16:57:25.251Z,27.28
2022-08-09T16:59:57.854Z,27.31
2022-08-09T17:02:33.865Z,27.06
2022-08-09T17:05:00.673Z,27.20
2022-08-09T17:08:42.704Z,27.09
2022-08-09T17:10:15.673Z,27.13
2022-08-09T17:12:45.568Z,27.18
2022-08-09T17:15:18.228Z,27.06
2022-08-09T17:18:01.150Z,27.03
2022-08-09T17:20:35.177Z,27.00
2022-08-09T17:23:04.816Z,26.99
2022-08-09T17:25:32.245Z,26.86
2022-08-09T17:28:05.995Z,26.92
2022-08-09T17:30:33.910Z,26.71
2022-08-09T17:33:22.405Z,26.66
2022-08-09T17:35:50.272Z,26.70
2022-08-09T17:38:32.612Z,26.54
2022-08-09T17:41:02.970Z,26.45
2022-08-09T17:43:35.735Z,26.41
2022-08-09T17:46:09.161Z,26.26
2022-08-09T17:48:40.249Z,26.18
2022-08-09T17:51:18.603Z,26.11
2022-08-09T17:53:51.982Z,26.03
2022-08-09T17:56:35.400Z,26.10
2022-08-09T17:59:09.177Z,25.97
2022-08-09T18:01:40.783Z,25.87
2022-08-09T18:04:25.514Z,25.80
2022-08-09T18:06:54.776Z,25.77
2022-08-09T18:09:40.957Z,25.73
2022-08-09T18:12:19.407Z,25.65
2022-08-09T18:14:53.565Z,25.54
2022-08-09T18:17:27.046Z,25.40
2022-08-09T18:21:00.195Z,25.32
2022-08-09T18:22:56.622Z,25.32
2022-08-09T18:25:51.093Z,25.30
2022-08-09T18:28:21.698Z,25.16
2022-08-09T18:30:57.975Z,25.21
2022-08-09T18:33:25.723Z,25.13
2022-08-09T18:35:59.333Z,24.98
2022-08-09T18:38:27.620Z,24.92
2022-08-09T18:40:55.305Z,24.80
2022-08-09T18:43:23.650Z,24.72
2022-08-09T18:46:51.019Z,24.70
2022-08-09T18:48:38.329Z,24.60
2022-08-09T18:51:08.887Z,24.52
2022-08-09T18:53:56.966Z,24.42
2022-08-09T18:56:28.066Z,24.33
2022-08-09T18:58:56.252Z,24.25
2022-08-09T19:01:23.616Z,24.26
2022-08-09T19:04:01.781Z,24.13
2022-08-09T19:06:36.336Z,24.07
2022-08-09T19:09:06.369Z,23.94
2022-08-09T19:11:38.101Z,23.89
2022-08-09T19:14:06.358Z,23.87
2022-08-09T19:16:36.291Z,23.84
2022-08-09T19:19:25.299Z,23.70
2022-08-09T19:22:06.772Z,23.63
2022-08-09T19:24:39.324Z,23.66
2022-08-09T19:27:21.600Z,23.64
2022-08-09T19:30:22.987Z,23.58
2022-08-09T19:32:35.576Z,23.43
2022-08-09T19:35:04.326Z,23.41
2022-08-09T19:37:41.180Z,23.12
2022-08-09T19:40:19.470Z,23.01
2022-08-09T19:42:47.419Z,22.91
2022-08-09T19:45:16.204Z,22.62
2022-08-09T19:47:44.354Z,22.31
2022-08-09T19:50:50.144Z,22.15
2022-08-09T19:52:59.504Z,21.84
2022-08-09T19:55:39.150Z,21.74
2022-08-09T19:58:16.041Z,21.81
2022-08-09T20:00:45.460Z,21.42
2022-08-09T20:04:09.977Z,21.43
2022-08-09T20:05:59.617Z,21.30
2022-08-09T20:08:34.929Z,21.27
2022-08-09T20:11:03.979Z,21.00
2022-08-09T20:13:32.261Z,20.82
2022-08-09T20:16:37.555Z,20.60
2022-08-09T20:19:42.420Z,20.50
2022-08-09T20:21:57.002Z,20.39
2022-08-09T20:24:31.893Z,20.30
2022-08-09T20:27:01.567Z,20.27
2022-08-09T20:29:32.691Z,20.13
2022-08-09T20:32:33.342Z,19.97
2022-08-09T20:34:51.744Z,19.84
2022-08-09T20:37:21.611Z,19.81
2022-08-09T20:40:15.812Z,19.76
2022-08-09T20:42:35.872Z,19.67
2022-08-09T20:46:00.492Z,19.50
2022-08-09T20:47:51.618Z,19.49
2022-08-09T20:50:47.602Z,19.51
2022-08-09T20:53:04.606Z,19.51
2022-08-09T20:55:47.267Z,19.14
2022-08-09T20:58:28.514Z,19.11
2022-08-09T21:01:14.271Z,19.09
2022-08-09T21:04:08.393Z,18.82
2022-08-09T21:06:33.616Z,18.85
2022-08-09T21:09:01.546Z,18.68
2022-08-09T21:14:15.416Z,18.67
2022-08-09T21:16:43.774Z,18.52
2022-08-09T21:20:18.201Z,18.61
2022-08-09T21:21:59.647Z,18.35
2022-08-09T21:24:29.000Z,18.19
2022-08-09T21:26:59.050Z,18.10
2022-08-09T21:29:25.454Z,18.17
2022-08-09T21:31:51.882Z,18.09
2022-08-09T21:34:28.834Z,17.95
2022-08-09T21:36:56.623Z,17.98
2022-08-09T21:39:41.520Z,17.98
2022-08-09T21:42:10.475Z,17.99
2022-08-09T21:44:38.010Z,17.92
2022-08-09T21:47:07.911Z,17.84
2022-08-09T21:49:39.700Z,17.63
2022-08-09T21:52:14.861Z,17.67
2022-08-09T21:54:50.898Z,17.57
2022-08-09T21:57:39.616Z,17.52
2022-08-09T22:00:25.541Z,17.47
2022-08-09T22:02:58.202Z,17.52
2022-08-09T22:05:36.074Z,17.38
2022-08-09T22:08:05.263Z,17.40
2022-08-09T22:10:31.804Z,17.34
2022-08-09T22:12:59.752Z,17.31
2022-08-09T22:15:35.308Z,17.28
2022-08-09T22:18:03.771Z,17.16
2022-08-09T22:20:31.097Z,17.19
2022-08-09T22:22:58.414Z,17.13
2022-08-09T22:26:08.371Z,17.01
2022-08-09T22:28:11.704Z,16.98
2022-08-09T22:30:39.151Z,16.95
2022-08-09T22:33:17.413Z,16.86
2022-08-09T22:36:00.996Z,16.83
2022-08-09T22:38:30.071Z,16.74
2022-08-09T22:40:58.465Z,16.77
2022-08-09T22:44:02.606Z,16.76
2022-08-09T22:48:13.479Z,16.67
2022-08-09T22:49:01.716Z,16.77
2022-08-09T22:51:28.430Z,16.64
2022-08-09T22:54:02.765Z,16.63
2022-08-09T22:56:34.075Z,16.58
2022-08-09T22:59:05.789Z,16.40
2022-08-09T23:01:51.707Z,16.37
2022-08-09T23:04:18.245Z,16.30
2022-08-09T23:07:03.712Z,16.33
2022-08-09T23:09:38.309Z,16.36
2022-08-09T23:12:04.863Z,16.31
2022-08-09T23:14:41.645Z,16.26
2022-08-09T23:17:09.191Z,16.27
2022-08-09T23:20:06.522Z,16.20
2022-08-09T23:22:22.245Z,16.22
2022-08-09T23:24:49.212Z,16.16
2022-08-09T23:27:15.856Z,16.08
2022-08-09T23:29:42.484Z,16.05
2022-08-09T23:32:09.083Z,16.09
2022-08-09T23:34:35.519Z,16.07
2022-08-09T23:37:02.376Z,16.00
2022-08-09T23:39:28.858Z,15.89
2022-08-09T23:41:55.584Z,15.98
2022-08-09T23:44:22.153Z,15.89
2022-08-09T23:46:52.862Z,15.77
2022-08-09T23:49:24.986Z,15.87
2022-08-09T23:51:52.172Z,15.79
2022-08-09T23:54:18.870Z,15.61
2022-08-09T23:56:54.336Z,15.57
2022-08-09T23:59:24.179Z,15.48
